Дата Время Давление Темп. Влажн. Скор.ветра Напр.ветра Макс.ветер Осадки/час Осадки
07.03.21 20:00 729.5 -5.2 91.5 1.6 211 3.3 0 1.4
07.03.21 19:00 729.4 -4.9 93.1 1.2 220 3.1 0.2 1.4
07.03.21 18:00 729.3 -3.6 93.5 1.3 306 4.2 0.4 1.2
07.03.21 17:00 728.8 -3.3 93.7 1.1 355 7.9 0 0.8
07.03.21 16:00 728.4 -1.7 93.2 1.5 249 6.1 0.4 0.8
07.03.21 15:00 728.6 -1.5 92.1 2.7 221 7.8 0.2 0.4
07.03.21 14:00 729.1 -2.9 93 3.2 220 7.2 0.2 0.2
07.03.21 13:00 729.6 -3.3 92.2 3.6 208 9.8 0 0
07.03.21 12:00 730.1 -4 91 3.7 201 10.8 0 0
07.03.21 11:00 731 -4.5 89.3 3.5 204 11.5 0 0
07.03.21 10:00 732 -4.7 86.2 3.8 192 9.7 0 0
07.03.21 09:00 733 -5.3 86.4 4.1 193 10.7 0 0
07.03.21 08:00 733.9 -5.9 85.4 3.8 196 9.2 0 0
07.03.21 07:00 735.2 -5.9 78.7 4.3 193 8.2 0 0
07.03.21 06:00 736.6 -6.4 80.2 3.8 199 8.3 0 0
07.03.21 05:00 737.5 -6.7 74.8 2.8 202 7.8 0 0
07.03.21 04:00 738.7 -7.4 72.9 3.3 199 7.2 0 0
07.03.21 03:00 739.8 -8.1 74.3 3.1 189 8 0 0
07.03.21 02:00 741 -9.3 77.4 3.1 190 4.8 0 0
07.03.21 01:00 742 -9.1 76.7 2.5 189 4.7 0 0
07.03.21 00:00 742.9 -8.5 75.9 2.6 195 4 0 0.2
06.03.21 22:00 744.2 -8 79 1.5 279 3.1 0 0.2
06.03.21 21:00 744.6 -7.5 76.6 1.3 279 2.6 0 0.2
06.03.21 20:00 744.8 -6.9 77.4 1.4 279 3.2 0 0.2